Time;durP1;ratioP1;P1;durP2;ratioP2;P2;SDS_P1;SDS_P2;PMS_P1;PMS_P2;Temp;Humidity;BMP_temperature;BMP_pressure;BME280_temperature;BME280_humidity;BME280_pressure;Samples;Min_cycle;Max_cycle;Signal;HPM_P1;HPM_P2
2021/08/24 00:01:28;;;;;;;;;;;;;;;;;;5035406;28;20258;-66
2021/08/24 00:03:55;;;;;;;;;;;;;;;;;;5035884;28;19933;-67
2021/08/24 00:06:22;;;;;;;;;;;;;;;;;;5037566;28;19932;-68
2021/08/24 00:08:49;;;;;;;;;;;;;;;;;;5033858;28;19925;-67
2021/08/24 00:11:16;;;;;;;;;;;;;;;;;;5036036;28;19936;-67
2021/08/24 00:13:43;;;;;;;;;;;;;;;;;;5041587;28;20121;-67
2021/08/24 00:16:10;;;;;;;;;;;;;;;;;;5037114;28;19955;-67
2021/08/24 00:18:37;;;;;;;;;;;;;;;;;;5036572;28;19928;-68
2021/08/24 00:21:04;;;;;;;;;;;;;;;;;;5034996;28;19933;-66
2021/08/24 00:23:31;;;;;;;;;;;;;;;;;;5039627;28;20278;-67
2021/08/24 00:25:58;;;;;;;;;;;;;;;;;;5035814;28;19929;-67
2021/08/24 00:28:25;;;;;;;;;;;;;;;;;;5034713;28;20336;-68
2021/08/24 00:30:52;;;;;;;;;;;;;;;;;;5036596;28;19934;-67
2021/08/24 00:33:19;;;;;;;;;;;;;;;;;;5044074;28;20343;-67
2021/08/24 00:35:46;;;;;;;;;;;;;;;;;;5045579;28;19924;-67
2021/08/24 00:38:13;;;;;;;;;;;;;;;;;;5042606;28;20143;-67
2021/08/24 00:40:40;;;;;;;;;;;;;;;;;;5038694;28;20019;-67
2021/08/24 00:43:07;;;;;;;;;;;;;;;;;;5036459;28;19925;-67
2021/08/24 00:45:34;;;;;;;;;;;;;;;;;;5034290;28;19929;-67
2021/08/24 00:48:01;;;;;;;;;;;;;;;;;;5048043;28;20381;-67
2021/08/24 00:50:28;;;;;;;;;;;;;;;;;;5036772;28;19925;-67
2021/08/24 00:52:55;;;;;;;;;;;;;;;;;;5039801;28;20008;-67
2021/08/24 00:55:22;;;;;;;;;;;;;;;;;;5040532;28;20403;-68
2021/08/24 00:57:49;;;;;;;;;;;;;;;;;;5037444;28;19935;-67
2021/08/24 01:00:16;;;;;;;;;;;;;;;;;;5039750;28;20020;-67
2021/08/24 01:02:43;;;;;;;;;;;;;;;;;;5047771;28;20015;-67
2021/08/24 01:05:10;;;;;;;;;;;;;;;;;;5044285;28;19924;-67
2021/08/24 01:07:37;;;;;;;;;;;;;;;;;;5039365;28;20403;-67
2021/08/24 01:10:04;;;;;;;;;;;;;;;;;;5035979;28;19940;-67
2021/08/24 01:12:31;;;;;;;;;;;;;;;;;;5034716;28;19971;-67
2021/08/24 01:14:58;;;;;;;;;;;;;;;;;;5037123;28;19935;-67
2021/08/24 01:17:25;;;;;;;;;;;;;;;;;;5034867;28;19928;-68
2021/08/24 01:19:52;;;;;;;;;;;;;;;;;;5037954;28;20332;-67
2021/08/24 01:22:19;;;;;;;;;;;;;;;;;;5037752;28;19925;-67
2021/08/24 01:24:46;;;;;;;;;;;;;;;;;;5034750;28;19936;-67
2021/08/24 01:27:13;;;;;;;;;;;;;;;;;;5034005;28;20381;-67
2021/08/24 01:29:39;;;;;;;;;;;;;;;;;;5038800;28;19929;-68
2021/08/24 01:32:06;;;;;;;;;;;;;;;;;;5040387;28;21789;-66
2021/08/24 01:34:33;;;;;;;;;;;;;;;;;;5036201;28;19940;-68
2021/08/24 01:37:00;;;;;;;;;;;;;;;;;;5040488;28;19935;-67
2021/08/24 01:39:27;;;;;;;;;;;;;;;;;;5040260;28;19935;-67
2021/08/24 01:41:54;;;;;;;;;;;;;;;;;;5044451;28;19931;-67
2021/08/24 01:44:21;;;;;;;;;;;;;;;;;;5049942;28;19940;-67
2021/08/24 01:46:48;;;;;;;;;;;;;;;;;;5046607;28;20341;-67
2021/08/24 01:49:15;;;;;;;;;;;;;;;;;;5048730;28;19929;-67
2021/08/24 01:51:42;;;;;;;;;;;;;;;;;;5040562;28;20297;-67
2021/08/24 01:54:09;;;;;;;;;;;;;;;;;;5041458;28;19940;-67
2021/08/24 01:56:38;;;;;;;;;;;;;;;;;;5039397;28;19932;-67
2021/08/24 01:59:05;;;;;;;;;;;;;;;;;;5045879;28;19931;-68
2021/08/24 02:01:32;;;;;;;;;;;;;;;;;;5044781;28;20385;-68
2021/08/24 02:03:59;;;;;;;;;;;;;;;;;;5044358;28;19976;-67
2021/08/24 02:06:26;;;;;;;;;;;;;;;;;;5039434;28;20369;-67
2021/08/24 02:08:53;;;;;;;;;;;;;;;;;;5049107;28;19925;-67
2021/08/24 02:11:20;;;;;;;;;;;;;;;;;;5045504;28;20468;-67
2021/08/24 02:13:47;;;;;;;;;;;;;;;;;;5044090;28;19952;-67
2021/08/24 02:16:18;;;;;;;;;;;;;;;;;;5048792;28;19925;-67
2021/08/24 02:18:45;;;;;;;;;;;;;;;;;;5044433;28;19964;-67
2021/08/24 02:21:12;;;;;;;;;;;;;;;;;;5038183;28;19931;-66
2021/08/24 02:23:39;;;;;;;;;;;;;;;;;;5050084;28;20400;-67
2021/08/24 02:26:06;;;;;;;;;;;;;;;;;;5046631;28;19925;-67
2021/08/24 02:28:33;;;;;;;;;;;;;;;;;;5051886;28;19931;-67
2021/08/24 02:31:00;;;;;;;;;;;;;;;;;;5044758;28;19932;-67
2021/08/24 02:33:27;;;;;;;;;;;;;;;;;;5041004;28;19929;-67
2021/08/24 02:35:53;;;;;;;;;;;;;;;;;;5050478;28;19932;-67
2021/08/24 02:38:20;;;;;;;;;;;;;;;;;;5042308;28;20298;-68
2021/08/24 02:40:47;;;;;;;;;;;;;;;;;;5039189;28;19947;-67
2021/08/24 02:43:14;;;;;;;;;;;;;;;;;;5040270;28;20274;-66
2021/08/24 02:45:41;;;;;;;;;;;;;;;;;;5040841;28;20415;-67
2021/08/24 02:48:08;;;;;;;;;;;;;;;;;;5039199;28;20436;-67
2021/08/24 02:50:35;;;;;;;;;;;;;;;;;;5039583;28;19931;-67
2021/08/24 02:53:02;;;;;;;;;;;;;;;;;;5039955;28;19967;-67
2021/08/24 02:55:29;;;;;;;;;;;;;;;;;;5039560;28;19925;-67
2021/08/24 02:57:56;;;;;;;;;;;;;;;;;;5047803;28;20012;-67
2021/08/24 03:00:23;;;;;;;;;;;;;;;;;;5040733;28;19925;-67
2021/08/24 03:02:50;;;;;;;;;;;;;;;;;;5043221;28;20019;-67
2021/08/24 03:05:17;;;;;;;;;;;;;;;;;;5046881;28;19935;-67
2021/08/24 03:07:44;;;;;;;;;;;;;;;;;;5042582;28;19939;-67
2021/08/24 03:10:11;;;;;;;;;;;;;;;;;;5048509;28;19932;-68
2021/08/24 03:12:38;;;;;;;;;;;;;;;;;;5041481;28;20309;-66
2021/08/24 03:15:05;;;;;;;;;;;;;;;;;;5046305;28;19929;-65
2021/08/24 03:17:32;;;;;;;;;;;;;;;;;;5039730;28;19944;-67
2021/08/24 03:19:59;;;;;;;;;;;;;;;;;;5036267;28;20396;-67
2021/08/24 03:22:26;;;;;;;;;;;;;;;;;;5040265;28;20006;-67
2021/08/24 03:24:53;;;;;;;;;;;;;;;;;;5046611;28;20428;-66
2021/08/24 03:27:20;;;;;;;;;;;;;;;;;;5044323;28;19925;-66
2021/08/24 03:29:47;;;;;;;;;;;;;;;;;;5039195;28;19932;-67
2021/08/24 03:32:14;;;;;;;;;;;;;;;;;;5037366;28;20392;-67
2021/08/24 03:34:41;;;;;;;;;;;;;;;;;;5037613;28;19932;-67
2021/08/24 03:37:08;;;;;;;;;;;;;;;;;;5037330;28;19925;-65
2021/08/24 03:39:35;;;;;;;;;;;;;;;;;;5037403;28;20304;-70
2021/08/24 03:42:02;;;;;;;;;;;;;;;;;;5058984;22;20362;-66
2021/08/24 03:44:29;;;;;;;;;;;;;;;;;;5018967;28;19944;-66
2021/08/24 03:46:56;;;;;;;;;;;;;;;;;;5025430;28;19929;-65
2021/08/24 03:49:23;;;;;;;;;;;;;;;;;;5029948;28;19932;-66
2021/08/24 03:51:50;;;;;;;;;;;;;;;;;;5023892;28;19972;-66
2021/08/24 03:54:17;;;;;;;;;;;;;;;;;;5037891;28;19933;-67
2021/08/24 03:56:45;;;;;;;;;;;;;;;;;;5034151;28;19925;-66
2021/08/24 03:59:12;;;;;;;;;;;;;;;;;;5033447;28;20008;-66
2021/08/24 04:01:39;;;;;;;;;;;;;;;;;;5026826;28;19929;-65
2021/08/24 04:04:06;;;;;;;;;;;;;;;;;;5028866;28;19932;-65
2021/08/24 04:06:33;;;;;;;;;;;;;;;;;;5030918;28;20381;-66
2021/08/24 04:09:00;;;;;;;;;;;;;;;;;;5027613;28;19972;-65
2021/08/24 04:11:27;;;;;;;;;;;;;;;;;;5029369;28;19925;-66
2021/08/24 04:13:56;;;;;;;;;;;;;;;;;;5028770;28;19929;-67
2021/08/24 04:16:23;;;;;;;;;;;;;;;;;;5026669;28;19925;-66
2021/08/24 04:18:50;;;;;;;;;;;;;;;;;;5029937;28;19925;-67
2021/08/24 04:21:17;;;;;;;;;;;;;;;;;;5030670;28;20304;-66
2021/08/24 04:23:44;;;;;;;;;;;;;;;;;;5027879;28;19925;-66
2021/08/24 04:26:11;;;;;;;;;;;;;;;;;;5028688;28;19929;-67
2021/08/24 04:28:38;;;;;;;;;;;;;;;;;;5027286;28;20366;-66
2021/08/24 04:31:05;;;;;;;;;;;;;;;;;;5032789;28;19925;-66
2021/08/24 04:33:32;;;;;;;;;;;;;;;;;;5031481;28;20059;-66
2021/08/24 04:35:59;;;;;;;;;;;;;;;;;;5031262;28;19925;-66
2021/08/24 04:38:27;;;;;;;;;;;;;;;;;;5029654;28;19948;-66
2021/08/24 04:40:54;;;;;;;;;;;;;;;;;;5032613;28;19925;-67
2021/08/24 04:43:21;;;;;;;;;;;;;;;;;;5022126;28;19944;-67
2021/08/24 04:45:48;;;;;;;;;;;;;;;;;;5030450;28;19925;-66
2021/08/24 04:48:15;;;;;;;;;;;;;;;;;;5028085;28;19933;-66
2021/08/24 04:50:42;;;;;;;;;;;;;;;;;;5030514;28;19929;-66
2021/08/24 04:53:09;;;;;;;;;;;;;;;;;;5029690;28;20000;-66
2021/08/24 04:55:36;;;;;;;;;;;;;;;;;;5030334;28;19935;-67
2021/08/24 04:58:03;;;;;;;;;;;;;;;;;;5027827;28;20321;-66
2021/08/24 05:00:30;;;;;;;;;;;;;;;;;;5027854;28;19925;-65
2021/08/24 05:02:57;;;;;;;;;;;;;;;;;;5023656;28;19929;-65
2021/08/24 05:05:24;;;;;;;;;;;;;;;;;;5026437;28;20331;-65
2021/08/24 05:07:51;;;;;;;;;;;;;;;;;;5028666;28;19925;-65
2021/08/24 05:10:18;;;;;;;;;;;;;;;;;;5031585;28;20023;-64
2021/08/24 05:12:45;;;;;;;;;;;;;;;;;;5035189;28;20003;-64
2021/08/24 05:15:12;;;;;;;;;;;;;;;;;;5031665;28;20392;-65
2021/08/24 05:17:39;;;;;;;;;;;;;;;;;;5036361;28;19947;-66
2021/08/24 05:20:06;;;;;;;;;;;;;;;;;;5031217;28;19925;-65
2021/08/24 05:22:33;;;;;;;;;;;;;;;;;;5030261;28;19929;-66
2021/08/24 05:25:00;;;;;;;;;;;;;;;;;;5035084;28;20373;-66
2021/08/24 05:27:27;;;;;;;;;;;;;;;;;;5033456;28;21059;-65
2021/08/24 05:29:54;;;;;;;;;;;;;;;;;;5032849;28;19929;-66
2021/08/24 05:32:21;;;;;;;;;;;;;;;;;;5039471;28;20292;-65
2021/08/24 05:34:47;;;;;;;;;;;;;;;;;;5032643;28;19925;-66
2021/08/24 05:37:14;;;;;;;;;;;;;;;;;;5033354;28;19925;-66
2021/08/24 05:39:41;;;;;;;;;;;;;;;;;;5031548;28;19925;-66
2021/08/24 05:42:08;;;;;;;;;;;;;;;;;;5032425;28;19925;-66
2021/08/24 05:44:35;;;;;;;;;;;;;;;;;;5032412;28;19932;-65
2021/08/24 05:47:02;;;;;;;;;;;;;;;;;;5033439;28;19958;-66
2021/08/24 05:49:29;;;;;;;;;;;;;;;;;;5025829;28;20626;-65
2021/08/24 05:51:56;;;;;;;;;;;;;;;;;;5032712;28;20286;-66
2021/08/24 05:54:23;;;;;;;;;;;;;;;;;;5029431;28;20033;-67
2021/08/24 05:56:50;;;;;;;;;;;;;;;;;;5031429;28;20015;-66
2021/08/24 05:59:17;;;;;;;;;;;;;;;;;;5033376;28;20281;-67
2021/08/24 06:01:44;;;;;;;;;;;;;;;;;;5033216;28;19933;-67
2021/08/24 06:04:11;;;;;;;;;;;;;;;;;;5030523;28;19944;-67
2021/08/24 06:06:38;;;;;;;;;;;;;;;;;;5032672;28;19929;-65
2021/08/24 06:09:05;;;;;;;;;;;;;;;;;;5030876;28;19932;-65
2021/08/24 06:11:32;;;;;;;;;;;;;;;;;;5032956;28;20378;-66
2021/08/24 06:13:59;;;;;;;;;;;;;;;;;;5030847;28;20011;-66
2021/08/24 06:16:26;;;;;;;;;;;;;;;;;;5031713;28;19932;-66
2021/08/24 06:18:53;;;;;;;;;;;;;;;;;;5031443;28;19926;-65
2021/08/24 06:21:19;;;;;;;;;;;;;;;;;;5031577;28;19925;-66
2021/08/24 06:23:46;;;;;;;;;;;;;;;;;;5030902;28;19925;-66
2021/08/24 06:26:13;;;;;;;;;;;;;;;;;;5028016;28;19936;-66
2021/08/24 06:28:40;;;;;;;;;;;;;;;;;;5028501;28;19928;-64
2021/08/24 06:31:07;;;;;;;;;;;;;;;;;;5030366;28;19925;-65
2021/08/24 06:33:34;;;;;;;;;;;;;;;;;;5030357;28;19929;-64
2021/08/24 06:36:01;;;;;;;;;;;;;;;;;;5033098;28;20105;-65
2021/08/24 06:38:29;;;;;;;;;;;;;;;;;;5026713;28;19933;-65
2021/08/24 06:40:56;;;;;;;;;;;;;;;;;;5029735;28;19930;-65
2021/08/24 06:43:23;;;;;;;;;;;;;;;;;;5030268;28;20366;-66
2021/08/24 06:45:50;;;;;;;;;;;;;;;;;;5020308;28;19933;-65
2021/08/24 06:48:17;;;;;;;;;;;;;;;;;;5018283;28;19929;-66
2021/08/24 06:50:44;;;;;;;;;;;;;;;;;;5025240;28;19933;-67
2021/08/24 06:53:11;;;;;;;;;;;;;;;;;;5023577;28;19925;-65
2021/08/24 06:55:39;;;;;;;;;;;;;;;;;;5021125;28;19925;-66
2021/08/24 06:58:06;;;;;;;;;;;;;;;;;;5022746;28;19990;-66
2021/08/24 07:00:33;;;;;;;;;;;;;;;;;;5028052;28;19941;-65
2021/08/24 07:03:05;;;;;;;;;;;;;;;;;;5025570;28;20397;-66
2021/08/24 07:05:32;;;;;;;;;;;;;;;;;;5028389;28;19925;-65
2021/08/24 07:07:59;;;;;;;;;;;;;;;;;;5028291;28;19944;-66
2021/08/24 07:10:26;;;;;;;;;;;;;;;;;;5027740;28;19933;-68
2021/08/24 07:12:53;;;;;;;;;;;;;;;;;;5026803;28;19925;-67
2021/08/24 07:15:22;;;;;;;;;;;;;;;;;;5028369;28;19925;-65
2021/08/24 07:17:49;;;;;;;;;;;;;;;;;;5028235;28;20406;-65
2021/08/24 07:20:16;;;;;;;;;;;;;;;;;;5028523;28;19932;-66
2021/08/24 07:22:43;;;;;;;;;;;;;;;;;;5027315;28;19925;-67
2021/08/24 07:25:10;;;;;;;;;;;;;;;;;;5027638;28;19940;-66
2021/08/24 07:27:37;;;;;;;;;;;;;;;;;;5027775;28;19933;-67
2021/08/24 07:30:04;;;;;;;;;;;;;;;;;;5026389;28;19933;-66
2021/08/24 07:32:33;;;;;;;;;;;;;;;;;;5027206;28;20787;-68
2021/08/24 07:35:00;;;;;;;;;;;;;;;;;;5027329;28;19952;-66
2021/08/24 07:37:27;;;;;;;;;;;;;;;;;;5030258;28;19925;-66
2021/08/24 07:39:54;;;;;;;;;;;;;;;;;;5027394;28;19933;-66
2021/08/24 07:42:21;;;;;;;;;;;;;;;;;;5028918;28;19929;-67
2021/08/24 07:44:48;;;;;;;;;;;;;;;;;;5027716;28;20301;-66
2021/08/24 07:47:15;;;;;;;;;;;;;;;;;;5026195;28;19936;-67
2021/08/24 07:49:44;;;;;;;;;;;;;;;;;;5027695;28;19928;-65
2021/08/24 07:52:11;;;;;;;;;;;;;;;;;;5026443;28;19932;-65
2021/08/24 07:54:38;;;;;;;;;;;;;;;;;;5029095;28;19925;-64
2021/08/24 07:57:05;;;;;;;;;;;;;;;;;;5023210;28;19956;-67
2021/08/24 07:59:32;;;;;;;;;;;;;;;;;;5019510;28;19944;-66
2021/08/24 08:01:59;;;;;;;;;;;;;;;;;;5026862;28;20241;-65
2021/08/24 08:04:26;;;;;;;;;;;;;;;;;;5023793;28;20423;-68
2021/08/24 08:06:53;;;;;;;;;;;;;;;;;;5023642;28;19925;-67
2021/08/24 08:09:20;;;;;;;;;;;;;;;;;;5027521;28;19925;-66
2021/08/24 08:11:47;;;;;;;;;;;;;;;;;;5026868;28;20011;-68
2021/08/24 08:14:16;;;;;;;;;;;;;;;;;;5026985;28;20413;-66
2021/08/24 08:16:43;;;;;;;;;;;;;;;;;;5029776;28;19968;-67
2021/08/24 08:19:13;;;;;;;;;;;;;;;;;;5028192;28;19957;-66
2021/08/24 08:21:40;;;;;;;;;;;;;;;;;;5018104;28;19929;-66
2021/08/24 08:24:07;;;;;;;;;;;;;;;;;;5019164;28;20012;-66
2021/08/24 08:26:34;;;;;;;;;;;;;;;;;;5034430;28;20392;-65
2021/08/24 08:29:03;;;;;;;;;;;;;;;;;;5030152;28;19925;-67
2021/08/24 08:31:30;;;;;;;;;;;;;;;;;;5024912;28;19979;-67
2021/08/24 08:33:57;;;;;;;;;;;;;;;;;;5026163;28;19931;-67
2021/08/24 08:36:24;;;;;;;;;;;;;;;;;;5028410;28;20296;-65
2021/08/24 08:38:51;;;;;;;;;;;;;;;;;;5026044;28;19929;-65
2021/08/24 08:41:18;;;;;;;;;;;;;;;;;;5025557;28;20016;-65
2021/08/24 08:43:45;;;;;;;;;;;;;;;;;;5025927;28;20288;-66
2021/08/24 08:46:12;;;;;;;;;;;;;;;;;;5026033;28;19925;-67
2021/08/24 08:48:39;;;;;;;;;;;;;;;;;;5029608;28;19925;-64
2021/08/24 08:51:06;;;;;;;;;;;;;;;;;;5023411;28;19925;-68
2021/08/24 08:53:33;;;;;;;;;;;;;;;;;;5027179;28;19929;-64
2021/08/24 08:56:00;;;;;;;;;;;;;;;;;;5030471;28;19955;-66
2021/08/24 08:58:31;;;;;;;;;;;;;;;;;;5022126;28;20254;-66
2021/08/24 09:00:58;;;;;;;;;;;;;;;;;;5022702;28;19953;-67
2021/08/24 09:03:25;;;;;;;;;;;;;;;;;;5026242;28;19925;-66
2021/08/24 09:05:51;;;;;;;;;;;;;;;;;;5026738;28;19931;-65
2021/08/24 09:08:18;;;;;;;;;;;;;;;;;;5026642;28;19925;-66
2021/08/24 09:10:45;;;;;;;;;;;;;;;;;;5030476;28;19929;-65
2021/08/24 09:13:12;;;;;;;;;;;;;;;;;;5026006;28;20016;-65
2021/08/24 09:15:39;;;;;;;;;;;;;;;;;;5031469;28;20294;-66
2021/08/24 09:18:06;;;;;;;;;;;;;;;;;;5028619;28;19925;-68
2021/08/24 09:20:34;;;;;;;;;;;;;;;;;;5029874;28;19925;-65
2021/08/24 09:23:02;;;;;;;;;;;;;;;;;;5028424;28;20301;-66
2021/08/24 09:25:29;;;;;;;;;;;;;;;;;;5027092;28;20389;-66
2021/08/24 09:27:57;;;;;;;;;;;;;;;;;;5027923;28;19933;-66
2021/08/24 09:30:26;;;;;;;;;;;;;;;;;;5026238;28;19933;-66
2021/08/24 09:32:58;;;;;;;;;;;;;;;;;;5028427;28;19929;-66
2021/08/24 09:35:25;;;;;;;;;;;;;;;;;;5030265;28;19931;-67
2021/08/24 09:37:52;;;;;;;;;;;;;;;;;;5028640;28;19925;-68
2021/08/24 09:40:19;;;;;;;;;;;;;;;;;;5025270;28;19935;-68
2021/08/24 09:42:47;;;;;;;;;;;;;;;;;;5030152;28;20268;-67
2021/08/24 09:45:14;;;;;;;;;;;;;;;;;;5027564;28;20408;-67
2021/08/24 09:47:41;;;;;;;;;;;;;;;;;;5026104;28;20297;-68
2021/08/24 09:50:08;;;;;;;;;;;;;;;;;;5028792;28;19960;-68
2021/08/24 09:52:35;;;;;;;;;;;;;;;;;;5030805;28;19939;-66
2021/08/24 09:55:03;;;;;;;;;;;;;;;;;;5028876;28;19971;-68
2021/08/24 09:57:30;;;;;;;;;;;;;;;;;;5029307;28;19925;-66
2021/08/24 09:59:57;;;;;;;;;;;;;;;;;;5024829;28;19929;-68
2021/08/24 10:02:24;;;;;;;;;;;;;;;;;;5030457;28;19932;-66
2021/08/24 10:04:51;;;;;;;;;;;;;;;;;;5033502;28;19931;-67
2021/08/24 10:07:18;;;;;;;;;;;;;;;;;;5031912;28;19925;-66
2021/08/24 10:09:44;;;;;;;;;;;;;;;;;;5033071;28;19928;-66
2021/08/24 10:12:11;;;;;;;;;;;;;;;;;;5031631;28;19947;-66
2021/08/24 10:14:38;;;;;;;;;;;;;;;;;;5030271;28;19925;-67
2021/08/24 10:17:05;;;;;;;;;;;;;;;;;;5031877;28;19971;-67
2021/08/24 10:19:32;;;;;;;;;;;;;;;;;;5032197;28;20312;-68
2021/08/24 10:21:59;;;;;;;;;;;;;;;;;;5032082;28;19932;-67
2021/08/24 10:24:26;;;;;;;;;;;;;;;;;;5033302;28;19925;-66
2021/08/24 10:26:53;;;;;;;;;;;;;;;;;;5033048;28;19926;-66
2021/08/24 10:29:20;;;;;;;;;;;;;;;;;;5032598;28;19931;-64
2021/08/24 10:31:47;;;;;;;;;;;;;;;;;;5029849;28;19932;-66
2021/08/24 10:34:14;;;;;;;;;;;;;;;;;;5032578;28;19936;-66
2021/08/24 10:36:41;;;;;;;;;;;;;;;;;;5033250;28;19929;-66
2021/08/24 10:39:08;;;;;;;;;;;;;;;;;;5030741;28;19925;-65
2021/08/24 10:41:35;;;;;;;;;;;;;;;;;;5028331;28;20301;-66
2021/08/24 10:44:02;;;;;;;;;;;;;;;;;;5031850;28;19936;-66
2021/08/24 10:46:29;;;;;;;;;;;;;;;;;;5031793;28;19980;-65
2021/08/24 10:48:56;;;;;;;;;;;;;;;;;;5028386;28;20012;-66
2021/08/24 10:51:23;;;;;;;;;;;;;;;;;;5029319;28;20012;-66
2021/08/24 10:53:50;;;;;;;;;;;;;;;;;;5030469;28;19929;-67
2021/08/24 10:56:17;;;;;;;;;;;;;;;;;;5032132;28;20297;-67
2021/08/24 10:58:44;;;;;;;;;;;;;;;;;;5029575;28;20444;-67
2021/08/24 11:01:11;;;;;;;;;;;;;;;;;;5026325;28;19936;-66
2021/08/24 11:03:38;;;;;;;;;;;;;;;;;;5029844;28;20007;-68
2021/08/24 11:06:05;;;;;;;;;;;;;;;;;;5029226;28;19936;-68
2021/08/24 11:08:32;;;;;;;;;;;;;;;;;;5029698;28;20305;-65
2021/08/24 11:10:59;;;;;;;;;;;;;;;;;;5029838;28;19929;-66
2021/08/24 11:13:26;;;;;;;;;;;;;;;;;;5031673;28;19925;-66
2021/08/24 11:15:53;;;;;;;;;;;;;;;;;;5029781;28;19929;-67
2021/08/24 11:18:20;;;;;;;;;;;;;;;;;;5028698;28;19925;-66
2021/08/24 11:20:47;;;;;;;;;;;;;;;;;;5029732;28;19925;-67
2021/08/24 11:23:14;;;;;;;;;;;;;;;;;;5031738;28;20223;-66
2021/08/24 11:25:41;;;;;;;;;;;;;;;;;;5030111;28;20381;-67
2021/08/24 11:28:08;;;;;;;;;;;;;;;;;;5027614;28;20028;-68
2021/08/24 11:30:35;;;;;;;;;;;;;;;;;;5027297;28;20019;-66
2021/08/24 11:33:02;;;;;;;;;;;;;;;;;;5027305;28;19933;-65
2021/08/24 11:35:29;;;;;;;;;;;;;;;;;;5030335;28;19925;-70
2021/08/24 11:37:55;;;;;;;;;;;;;;;;;;5029932;28;19933;-68
2021/08/24 11:40:22;;;;;;;;;;;;;;;;;;5021935;28;20618;-67
2021/08/24 11:42:49;;;;;;;;;;;;;;;;;;5025911;28;19925;-68
2021/08/24 11:45:16;;;;;;;;;;;;;;;;;;5022014;28;19929;-67
2021/08/24 11:47:43;;;;;;;;;;;;;;;;;;5029414;28;19939;-67
2021/08/24 11:50:11;;;;;;;;;;;;;;;;;;5025129;28;20016;-67
2021/08/24 11:52:38;;;;;;;;;;;;;;;;;;5029439;28;20328;-67
2021/08/24 11:55:05;;;;;;;;;;;;;;;;;;5023686;28;19935;-68
2021/08/24 11:57:32;;;;;;;;;;;;;;;;;;5025672;28;19925;-68
2021/08/24 11:59:59;;;;;;;;;;;;;;;;;;5023388;28;19926;-68
2021/08/24 12:02:26;;;;;;;;;;;;;;;;;;5019426;28;20389;-68
2021/08/24 12:04:53;;;;;;;;;;;;;;;;;;5025971;28;19949;-67
2021/08/24 12:07:20;;;;;;;;;;;;;;;;;;5024419;28;20341;-67
2021/08/24 12:09:47;;;;;;;;;;;;;;;;;;5024989;28;20033;-68
2021/08/24 12:12:14;;;;;;;;;;;;;;;;;;5021807;28;20012;-67
2021/08/24 12:14:40;;;;;;;;;;;;;;;;;;5023585;28;19929;-67
2021/08/24 12:17:08;;;;;;;;;;;;;;;;;;5025126;28;19932;-66
2021/08/24 12:19:35;;;;;;;;;;;;;;;;;;5023416;28;19956;-68
2021/08/24 12:22:02;;;;;;;;;;;;;;;;;;5026660;28;20420;-67
2021/08/24 12:24:30;;;;;;;;;;;;;;;;;;5025839;28;19932;-67
2021/08/24 12:26:57;;;;;;;;;;;;;;;;;;5025183;28;19932;-68
2021/08/24 12:29:24;;;;;;;;;;;;;;;;;;5025368;28;20305;-66
2021/08/24 12:31:51;;;;;;;;;;;;;;;;;;5025431;28;19929;-67
2021/08/24 12:34:18;;;;;;;;;;;;;;;;;;5027241;28;19925;-68
2021/08/24 12:36:45;;;;;;;;;;;;;;;;;;5025202;28;20323;-69
2021/08/24 12:39:12;;;;;;;;;;;;;;;;;;5023184;28;19933;-68
2021/08/24 12:41:39;;;;;;;;;;;;;;;;;;5025220;28;19931;-68
2021/08/24 12:44:06;;;;;;;;;;;;;;;;;;5025131;28;19971;-68
2021/08/24 12:46:33;;;;;;;;;;;;;;;;;;5025107;28;19951;-67
2021/08/24 12:49:00;;;;;;;;;;;;;;;;;;5023370;28;19932;-66
2021/08/24 12:51:26;;;;;;;;;;;;;;;;;;5024461;28;19932;-65
2021/08/24 12:53:53;;;;;;;;;;;;;;;;;;5023511;28;19929;-68
2021/08/24 12:56:20;;;;;;;;;;;;;;;;;;5024233;28;19925;-69
2021/08/24 12:58:47;;;;;;;;;;;;;;;;;;5023045;28;19932;-67
2021/08/24 13:01:14;;;;;;;;;;;;;;;;;;5023663;28;19929;-68
2021/08/24 13:03:41;;;;;;;;;;;;;;;;;;5017046;28;19935;-67
2021/08/24 13:06:08;;;;;;;;;;;;;;;;;;5026771;28;20396;-69
2021/08/24 13:08:35;;;;;;;;;;;;;;;;;;5023231;28;20393;-68
2021/08/24 13:11:02;;;;;;;;;;;;;;;;;;5022616;28;19960;-68
2021/08/24 13:13:29;;;;;;;;;;;;;;;;;;5022913;28;20000;-66
2021/08/24 13:15:56;;;;;;;;;;;;;;;;;;5027454;28;19936;-66
2021/08/24 13:18:24;;;;;;;;;;;;;;;;;;5023108;28;19925;-66
2021/08/24 13:20:51;;;;;;;;;;;;;;;;;;5023418;28;19936;-67
2021/08/24 13:23:18;;;;;;;;;;;;;;;;;;5027082;28;19925;-68
2021/08/24 13:25:45;;;;;;;;;;;;;;;;;;5024295;28;19979;-67
2021/08/24 13:28:12;;;;;;;;;;;;;;;;;;5022393;28;20342;-67
2021/08/24 13:30:39;;;;;;;;;;;;;;;;;;5023717;28;19932;-67
2021/08/24 13:33:06;;;;;;;;;;;;;;;;;;5026478;28;20397;-64
2021/08/24 13:35:33;;;;;;;;;;;;;;;;;;5028641;28;19929;-68
2021/08/24 13:38:00;;;;;;;;;;;;;;;;;;5029940;28;20405;-66
2021/08/24 13:40:27;;;;;;;;;;;;;;;;;;5031885;28;19931;-66
2021/08/24 13:42:54;;;;;;;;;;;;;;;;;;5029046;28;20385;-66
2021/08/24 13:45:21;;;;;;;;;;;;;;;;;;5027352;28;19925;-68
2021/08/24 13:47:48;;;;;;;;;;;;;;;;;;5031883;28;19929;-68
2021/08/24 13:50:14;;;;;;;;;;;;;;;;;;5027980;28;20392;-70
2021/08/24 13:52:41;;;;;;;;;;;;;;;;;;5027395;28;19931;-67
2021/08/24 13:55:08;;;;;;;;;;;;;;;;;;5030196;28;19987;-69
2021/08/24 13:57:35;;;;;;;;;;;;;;;;;;5027832;28;19929;-68
2021/08/24 14:00:02;;;;;;;;;;;;;;;;;;5029267;28;19925;-68
2021/08/24 14:02:29;;;;;;;;;;;;;;;;;;5028081;28;20275;-66
2021/08/24 14:04:56;;;;;;;;;;;;;;;;;;5022839;28;19936;-66
2021/08/24 14:07:23;;;;;;;;;;;;;;;;;;5028364;28;19933;-66
2021/08/24 14:09:50;;;;;;;;;;;;;;;;;;5025435;28;19928;-66
2021/08/24 14:12:17;;;;;;;;;;;;;;;;;;5027040;28;19929;-66
2021/08/24 14:14:44;;;;;;;;;;;;;;;;;;5027630;28;19925;-66
2021/08/24 14:17:11;;;;;;;;;;;;;;;;;;5027738;28;19925;-67
2021/08/24 14:19:38;;;;;;;;;;;;;;;;;;5027661;28;20381;-67
2021/08/24 14:22:05;;;;;;;;;;;;;;;;;;5029553;28;19939;-66
2021/08/24 14:24:32;;;;;;;;;;;;;;;;;;5029544;28;20301;-67
2021/08/24 14:26:59;;;;;;;;;;;;;;;;;;5024083;28;19928;-66
2021/08/24 14:29:26;;;;;;;;;;;;;;;;;;5021120;28;19926;-67
2021/08/24 14:31:53;;;;;;;;;;;;;;;;;;5023741;28;19925;-66
2021/08/24 14:34:22;;;;;;;;;;;;;;;;;;5023847;28;19931;-65
2021/08/24 14:36:49;;;;;;;;;;;;;;;;;;5019792;28;19932;-67
2021/08/24 14:39:16;;;;;;;;;;;;;;;;;;5020477;28;19929;-67
2021/08/24 14:41:43;;;;;;;;;;;;;;;;;;5027834;28;19931;-70
2021/08/24 14:44:10;;;;;;;;;;;;;;;;;;5027735;28;19925;-67
2021/08/24 14:46:37;;;;;;;;;;;;;;;;;;5023957;28;20408;-66
2021/08/24 14:49:04;;;;;;;;;;;;;;;;;;5024749;28;20020;-66
2021/08/24 14:51:31;;;;;;;;;;;;;;;;;;5025999;28;20425;-66
2021/08/24 14:53:58;;;;;;;;;;;;;;;;;;5029524;28;19936;-67
2021/08/24 14:56:25;;;;;;;;;;;;;;;;;;5025300;28;19976;-67
2021/08/24 14:58:52;;;;;;;;;;;;;;;;;;5029067;28;20403;-67
2021/08/24 15:01:19;;;;;;;;;;;;;;;;;;5030061;28;20296;-66
2021/08/24 15:03:46;;;;;;;;;;;;;;;;;;5028083;28;20452;-66
2021/08/24 15:06:14;;;;;;;;;;;;;;;;;;5020930;28;19925;-66
2021/08/24 15:08:41;;;;;;;;;;;;;;;;;;5026158;28;19933;-66
2021/08/24 15:11:07;;;;;;;;;;;;;;;;;;5025217;28;19925;-65
2021/08/24 15:13:34;;;;;;;;;;;;;;;;;;5023356;28;19926;-65
2021/08/24 15:16:01;;;;;;;;;;;;;;;;;;5025360;28;20032;-65
2021/08/24 15:18:28;;;;;;;;;;;;;;;;;;5024610;28;19932;-66
2021/08/24 15:20:55;;;;;;;;;;;;;;;;;;5022270;28;20317;-66
2021/08/24 15:23:22;;;;;;;;;;;;;;;;;;5023457;28;20341;-66
2021/08/24 15:25:49;;;;;;;;;;;;;;;;;;5023742;28;20409;-66
2021/08/24 15:28:16;;;;;;;;;;;;;;;;;;5021601;28;20492;-66
2021/08/24 15:30:43;;;;;;;;;;;;;;;;;;5024554;28;19925;-66
2021/08/24 15:33:10;;;;;;;;;;;;;;;;;;5024077;28;20008;-67
2021/08/24 15:35:37;;;;;;;;;;;;;;;;;;5019987;28;19933;-69
2021/08/24 15:38:04;;;;;;;;;;;;;;;;;;5025057;28;20555;-67
2021/08/24 15:40:31;;;;;;;;;;;;;;;;;;5029756;28;20600;-66
2021/08/24 15:42:58;;;;;;;;;;;;;;;;;;5062210;22;20281;-69
2021/08/24 15:45:25;;;;;;;;;;;;;;;;;;5043152;28;20151;-66
2021/08/24 15:47:52;;;;;;;;;;;;;;;;;;5042405;28;19928;-66
2021/08/24 15:50:19;;;;;;;;;;;;;;;;;;5047168;28;20327;-68
2021/08/24 15:52:48;;;;;;;;;;;;;;;;;;5046068;28;20568;-66
2021/08/24 15:55:15;;;;;;;;;;;;;;;;;;5046181;28;20360;-68
2021/08/24 15:57:43;;;;;;;;;;;;;;;;;;5043378;28;20396;-68
2021/08/24 16:00:12;;;;;;;;;;;;;;;;;;5047351;28;19929;-65
2021/08/24 16:02:39;;;;;;;;;;;;;;;;;;5043896;28;19925;-67
2021/08/24 16:05:06;;;;;;;;;;;;;;;;;;5039179;28;19925;-70
2021/08/24 16:07:33;;;;;;;;;;;;;;;;;;5041744;28;19935;-68
2021/08/24 16:10:01;;;;;;;;;;;;;;;;;;5042951;28;19933;-67
2021/08/24 16:12:28;;;;;;;;;;;;;;;;;;5044226;28;20416;-68
2021/08/24 16:14:55;;;;;;;;;;;;;;;;;;5046625;28;19931;-68
2021/08/24 16:17:23;;;;;;;;;;;;;;;;;;5046706;28;19931;-68
2021/08/24 16:19:50;;;;;;;;;;;;;;;;;;5043751;28;20023;-67
2021/08/24 16:22:17;;;;;;;;;;;;;;;;;;5043310;28;19928;-68
2021/08/24 16:24:44;;;;;;;;;;;;;;;;;;5039837;28;19933;-67
2021/08/24 16:27:11;;;;;;;;;;;;;;;;;;5040575;28;19935;-68
2021/08/24 16:29:38;;;;;;;;;;;;;;;;;;5043574;28;20464;-68
2021/08/24 16:32:05;;;;;;;;;;;;;;;;;;5044729;28;20753;-68
2021/08/24 16:34:32;;;;;;;;;;;;;;;;;;5042795;28;20062;-67
2021/08/24 16:36:59;;;;;;;;;;;;;;;;;;5047003;28;19937;-69
2021/08/24 16:39:26;;;;;;;;;;;;;;;;;;5044220;28;19972;-69
2021/08/24 16:41:53;;;;;;;;;;;;;;;;;;5044592;28;19933;-68
2021/08/24 16:44:20;;;;;;;;;;;;;;;;;;5044379;28;19931;-69